Time;durP1;ratioP1;P1;durP2;ratioP2;P2;SDS_P1;SDS_P2;PMS_P1;PMS_P2;Temp;Humidity;BMP_temperature;BMP_pressure;BME280_temperature;BME280_humidity;BME280_pressure;Samples;Min_cycle;Max_cycle;Signal;HPM_P1;HPM_P2
2021/12/17 10:43:42;;;;;;;32.73;14.40;;;6.60;95.50;;;;;;566240;23;20474;-91
2021/12/17 10:48:56;;;;;;;31.60;13.10;;;6.60;95.50;;;;;;5041268;28;20161;-93
2021/12/17 10:54:04;;;;;;;34.60;13.30;;;6.70;95.50;;;;;;5040964;28;20177;-94
2021/12/17 10:56:33;;;;;;;30.60;12.40;;;6.70;95.50;;;;;;5040482;28;20154;-94
2021/12/17 10:59:03;;;;;;;31.80;12.77;;;6.70;95.60;;;;;;5040413;28;20150;-93
2021/12/17 11:01:34;;;;;;;35.87;14.53;;;6.70;95.60;;;;;;5040302;28;20177;-94
2021/12/17 11:04:16;;;;;;;35.77;13.07;;;6.70;95.60;;;;;;5040211;28;20173;-93
2021/12/17 11:06:45;;;;;;;27.77;12.50;;;6.80;95.60;;;;;;5039958;28;20176;-93
2021/12/17 11:09:11;;;;;;;29.80;13.43;;;6.80;95.60;;;;;;5040060;28;20190;-93
2021/12/17 11:11:41;;;;;;;27.53;11.53;;;6.80;95.60;;;;;;5040066;28;20209;-93
2021/12/17 11:14:08;;;;;;;26.93;11.73;;;6.80;95.60;;;;;;5040029;28;20166;-94
2021/12/17 11:16:39;;;;;;;19.87;10.57;;;6.80;95.60;;;;;;5040106;28;20160;-92
2021/12/17 11:19:05;;;;;;;24.90;10.63;;;6.80;95.60;;;;;;5040068;28;20173;-93
2021/12/17 11:21:32;;;;;;;18.03;8.97;;;6.80;95.60;;;;;;5039975;28;20164;-94
2021/12/17 11:24:00;;;;;;;24.20;10.03;;;6.80;95.70;;;;;;5039862;28;20175;-94
2021/12/17 11:26:27;;;;;;;27.83;12.27;;;6.90;95.70;;;;;;5039836;28;20166;-93
2021/12/17 11:28:59;;;;;;;31.40;13.27;;;6.90;95.70;;;;;;5039875;28;20158;-92
2021/12/17 11:31:26;;;;;;;33.03;15.23;;;6.90;95.60;;;;;;5039712;28;20287;-92
2021/12/17 11:33:52;;;;;;;39.40;14.37;;;6.90;95.70;;;;;;5039639;28;20173;-94
2021/12/17 11:36:18;;;;;;;42.60;15.33;;;6.90;95.70;;;;;;5039688;28;20161;-93
2021/12/17 11:39:27;;;;;;;38.17;15.97;;;6.90;95.70;;;;;;5039709;28;20150;-94
2021/12/17 11:42:41;;;;;;;33.67;14.73;;;7.00;95.80;;;;;;5030016;28;20169;-94
2021/12/17 11:45:23;;;;;;;33.20;14.60;;;7.00;95.80;;;;;;5023077;28;20253;-93
2021/12/17 11:47:49;;;;;;;45.60;15.33;;;7.00;95.70;;;;;;5039424;28;20157;-93
2021/12/17 11:50:16;;;;;;;36.87;14.43;;;7.00;95.80;;;;;;5039303;28;20196;-95
2021/12/17 11:52:43;;;;;;;33.87;14.40;;;7.00;95.80;;;;;;5039353;28;20150;-93
2021/12/17 11:55:26;;;;;;;34.53;14.87;;;7.00;95.80;;;;;;5039362;28;20150;-92
2021/12/17 11:57:56;;;;;;;32.00;12.93;;;7.00;95.80;;;;;;5039397;28;20157;-93
2021/12/17 12:00:47;;;;;;;31.33;11.90;;;7.00;95.80;;;;;;5039190;28;20165;-94
2021/12/17 12:03:21;;;;;;;32.00;12.73;;;7.10;95.80;;;;;;5039187;28;20177;-94
2021/12/17 12:05:52;;;;;;;30.47;13.03;;;7.10;95.80;;;;;;5039222;28;20171;-94
2021/12/17 12:08:39;;;;;;;36.03;14.10;;;7.00;95.80;;;;;;5039170;28;20185;-95
2021/12/17 12:11:09;;;;;;;33.70;13.27;;;7.10;95.80;;;;;;5039036;28;20193;-94
2021/12/17 12:13:37;;;;;;;39.03;13.77;;;7.10;95.90;;;;;;5037552;28;20186;-94
2021/12/17 12:16:05;;;;;;;35.07;14.53;;;7.20;95.90;;;;;;5038847;28;20176;-94
2021/12/17 12:18:52;;;;;;;41.27;15.13;;;7.20;95.90;;;;;;5038862;28;20166;-94
2021/12/17 12:21:31;;;;;;;38.13;14.97;;;7.30;95.90;;;;;;5035159;28;20183;-93
2021/12/17 12:24:13;;;;;;;39.10;15.40;;;7.30;95.90;;;;;;5038817;28;20189;-92
2021/12/17 12:26:50;;;;;;;43.20;15.90;;;7.30;95.90;;;;;;5038721;28;20245;-94
2021/12/17 12:29:23;;;;;;;44.40;16.80;;;7.30;95.90;;;;;;5038629;28;20184;-92
2021/12/17 12:32:13;;;;;;;43.20;16.77;;;7.30;95.90;;;;;;5038621;28;20165;-94
2021/12/17 12:34:41;;;;;;;47.73;16.77;;;7.30;95.90;;;;;;5038634;28;20253;-95
2021/12/17 12:37:24;;;;;;;36.23;16.83;;;7.30;95.90;;;;;;5038666;28;20166;-91
2021/12/17 12:39:53;;;;;;;28.17;13.70;;;7.40;96.00;;;;;;5038673;28;20158;-92
2021/12/17 12:42:24;;;;;;;30.77;13.50;;;7.30;95.90;;;;;;5038654;28;20154;-93
2021/12/17 12:44:49;;;;;;;26.03;11.17;;;7.50;96.00;;;;;;5038260;28;20195;-93
2021/12/17 12:47:23;;;;;;;19.70;10.63;;;7.40;96.00;;;;;;5038681;28;20186;-93
2021/12/17 12:50:18;;;;;;;15.70;8.43;;;7.50;96.00;;;;;;5038525;28;20183;-94
2021/12/17 12:52:45;;;;;;;13.67;7.07;;;7.50;96.00;;;;;;5038564;28;20217;-95
2021/12/17 12:55:33;;;;;;;9.27;5.27;;;7.50;96.00;;;;;;5038469;28;20169;-94
2021/12/17 12:58:06;;;;;;;6.90;4.20;;;7.50;96.00;;;;;;5038523;28;20173;-95
2021/12/17 13:01:02;;;;;;;5.67;3.73;;;7.60;96.10;;;;;;5041058;28;20154;-96
2021/12/17 13:03:38;;;;;;;6.83;4.07;;;7.60;96.10;;;;;;5042420;28;20184;-95
2021/12/17 13:06:05;;;;;;;6.53;3.97;;;7.60;96.10;;;;;;5042414;28;20145;-96
2021/12/17 13:08:31;;;;;;;7.30;4.50;;;7.60;96.10;;;;;;5071719;22;20212;-96
2021/12/17 15:04:47;;;;;;;3.80;3.40;;;7.80;95.70;;;;;;5015314;28;20212;-91
2021/12/17 15:07:12;;;;;;;6.13;3.33;;;7.80;95.70;;;;;;5014065;28;20201;-91
2021/12/17 15:09:46;;;;;;;5.13;4.27;;;7.80;95.70;;;;;;5014349;28;20194;-91
2021/12/17 15:12:36;;;;;;;5.57;4.10;;;7.80;95.60;;;;;;4994551;28;20693;-90
2021/12/17 15:15:19;;;;;;;6.57;5.10;;;7.80;95.50;;;;;;4995438;28;20773;-90
2021/12/17 15:17:46;;;;;;;6.67;5.23;;;7.70;95.50;;;;;;4993881;28;20181;-91
2021/12/17 15:20:13;;;;;;;7.80;5.60;;;7.80;95.60;;;;;;4994226;28;20572;-90
2021/12/17 15:22:41;;;;;;;5.90;5.10;;;7.80;95.50;;;;;;4993939;28;20185;-90
2021/12/17 15:25:08;;;;;;;5.27;4.77;;;7.80;95.50;;;;;;4995395;28;20178;-90
2021/12/17 15:27:35;;;;;;;6.27;4.90;;;7.70;95.40;;;;;;4995469;28;20670;-90
2021/12/17 15:30:14;;;;;;;6.27;5.33;;;7.60;95.30;;;;;;4994095;28;20229;-90
2021/12/17 15:32:41;;;;;;;5.30;4.80;;;7.60;95.30;;;;;;4994221;28;20173;-90
2021/12/17 15:35:08;;;;;;;6.87;4.33;;;7.60;95.30;;;;;;4994043;28;20646;-91
2021/12/17 15:37:33;;;;;;;4.03;3.63;;;7.50;95.20;;;;;;4994270;28;20236;-91
2021/12/17 15:40:00;;;;;;;4.17;3.80;;;7.60;95.20;;;;;;4993891;28;20658;-89
2021/12/17 15:42:26;;;;;;;4.40;3.93;;;7.50;95.00;;;;;;4995173;28;20170;-90
2021/12/17 15:44:52;;;;;;;4.73;3.67;;;7.50;95.00;;;;;;4995224;28;20233;-91
2021/12/17 15:47:17;;;;;;;3.13;2.93;;;7.50;94.90;;;;;;4994956;28;20217;-91
2021/12/17 15:49:43;;;;;;;3.77;3.47;;;7.40;94.80;;;;;;4993567;28;20185;-91
2021/12/17 15:52:09;;;;;;;3.77;3.47;;;7.40;94.80;;;;;;4994804;28;20585;-91
2021/12/17 15:54:36;;;;;;;3.40;3.13;;;7.40;94.70;;;;;;4993715;28;20178;-91
2021/12/17 15:57:02;;;;;;;3.83;3.53;;;7.30;94.70;;;;;;4993629;28;20174;-91
2021/12/17 15:59:28;;;;;;;3.50;3.20;;;7.20;94.60;;;;;;4993483;28;20182;-91
2021/12/17 16:01:54;;;;;;;3.83;3.33;;;7.30;94.70;;;;;;4993684;28;20225;-91
2021/12/17 16:04:20;;;;;;;3.03;2.83;;;7.20;94.70;;;;;;4993592;28;20182;-91
2021/12/17 16:06:45;;;;;;;3.57;3.27;;;7.20;94.70;;;;;;4993421;28;20681;-91
2021/12/17 16:09:17;;;;;;;3.73;3.43;;;7.10;94.60;;;;;;4993759;28;20185;-90
2021/12/17 16:12:00;;;;;;;3.37;3.07;;;7.20;94.60;;;;;;4994319;28;20549;-91
2021/12/17 16:22:28;;;;;;;6.53;4.63;;;7.10;94.60;;;;;;4994784;28;20173;-91
2021/12/17 16:24:54;;;;;;;7.73;5.60;;;7.20;94.70;;;;;;4993179;28;20181;-91
2021/12/17 16:27:20;;;;;;;7.53;5.57;;;7.20;94.70;;;;;;4994616;28;20166;-91
2021/12/17 16:29:46;;;;;;;8.03;5.13;;;7.30;94.70;;;;;;4992964;28;20182;-89
2021/12/17 16:32:11;;;;;;;6.77;5.30;;;7.20;94.60;;;;;;4993133;28;20189;-89
2021/12/17 16:34:37;;;;;;;10.53;6.80;;;7.20;94.70;;;;;;4992266;28;20237;-90
2021/12/17 16:37:03;;;;;;;6.83;5.80;;;7.20;94.70;;;;;;4994260;28;20224;-90
2021/12/17 16:39:28;;;;;;;8.87;6.80;;;7.10;94.60;;;;;;4993193;28;20185;-90
2021/12/17 16:41:54;;;;;;;8.00;6.03;;;7.10;94.70;;;;;;4994081;28;20198;-89
2021/12/17 16:44:36;;;;;;;9.00;6.10;;;7.10;94.80;;;;;;4994008;28;20178;-91
2021/12/17 16:47:01;;;;;;;8.67;6.40;;;7.10;94.80;;;;;;4992932;28;20181;-89
2021/12/17 16:49:31;;;;;;;9.23;6.53;;;7.10;94.80;;;;;;4992870;28;20190;-91
2021/12/17 16:51:57;;;;;;;7.93;6.20;;;7.10;94.80;;;;;;4993103;28;20252;-89
2021/12/17 16:54:23;;;;;;;10.13;7.00;;;7.10;94.80;;;;;;4992775;28;20178;-91
2021/12/17 16:56:49;;;;;;;13.93;8.50;;;7.20;94.90;;;;;;4992827;28;20170;-91
2021/12/17 16:59:14;;;;;;;15.73;9.27;;;7.30;95.00;;;;;;4992707;28;20662;-91
2021/12/17 17:01:40;;;;;;;20.27;11.07;;;7.20;94.90;;;;;;4992450;28;20214;-90
2021/12/17 17:04:08;;;;;;;25.10;14.17;;;7.20;95.00;;;;;;4993218;28;20313;-90
2021/12/17 17:06:34;;;;;;;25.53;12.40;;;7.20;94.90;;;;;;4992739;28;20189;-90
2021/12/17 17:09:05;;;;;;;15.17;10.43;;;7.30;94.90;;;;;;4992619;28;20184;-90
2021/12/17 17:11:30;;;;;;;14.20;8.20;;;7.20;94.90;;;;;;4992680;28;20237;-90
2021/12/17 17:13:57;;;;;;;11.07;6.73;;;7.20;94.80;;;;;;4992688;28;20181;-91
2021/12/17 17:16:24;;;;;;;8.40;5.80;;;7.10;94.80;;;;;;4992542;28;20185;-90
2021/12/17 17:18:49;;;;;;;8.00;5.90;;;7.20;94.90;;;;;;4993082;28;20178;-90
2021/12/17 17:21:15;;;;;;;7.50;5.80;;;7.20;94.90;;;;;;4992442;28;20220;-90
2021/12/17 17:23:42;;;;;;;8.30;6.30;;;7.20;94.90;;;;;;4992471;28;20189;-90
2021/12/17 17:26:09;;;;;;;9.47;6.67;;;7.20;94.80;;;;;;4992512;28;20641;-90
2021/12/17 17:28:36;;;;;;;12.73;8.73;;;7.10;94.80;;;;;;4993930;28;20638;-90
2021/12/17 17:31:02;;;;;;;13.60;8.80;;;7.00;94.80;;;;;;4992268;28;20221;-90
2021/12/17 17:33:28;;;;;;;17.90;11.47;;;7.10;94.90;;;;;;4993639;28;20201;-91
2021/12/17 17:35:53;;;;;;;19.10;12.73;;;7.10;94.90;;;;;;4993551;28;20174;-90
2021/12/17 17:38:20;;;;;;;20.50;14.33;;;7.00;94.90;;;;;;4992456;28;20197;-90
2021/12/17 17:40:45;;;;;;;21.30;15.23;;;7.20;95.00;;;;;;4992397;28;20568;-90
2021/12/17 17:43:12;;;;;;;15.73;13.47;;;7.20;95.00;;;;;;4992260;28;20178;-91
2021/12/17 17:45:40;;;;;;;18.73;14.57;;;7.20;95.00;;;;;;4993296;28;20186;-90
2021/12/17 17:48:08;;;;;;;16.63;13.70;;;7.20;94.90;;;;;;4995989;28;20182;-90
2021/12/17 17:50:36;;;;;;;15.70;13.07;;;7.20;94.90;;;;;;4997190;28;20212;-90
2021/12/17 17:53:02;;;;;;;14.97;11.80;;;7.20;94.90;;;;;;4996653;28;20536;-90
2021/12/17 17:55:28;;;;;;;15.30;12.37;;;7.30;94.90;;;;;;4995936;28;20634;-90
2021/12/17 17:57:55;;;;;;;16.03;12.70;;;7.30;94.80;;;;;;4995826;28;20184;-90
2021/12/17 18:00:21;;;;;;;15.43;11.60;;;7.20;94.80;;;;;;4996228;28;20198;-90
2021/12/17 18:02:47;;;;;;;12.93;10.13;;;7.20;94.80;;;;;;4995835;28;20265;-90
2021/12/17 18:05:14;;;;;;;13.23;9.90;;;7.30;94.80;;;;;;4995673;28;20646;-89
2021/12/17 18:07:42;;;;;;;12.07;9.10;;;7.30;94.80;;;;;;4996832;28;20180;-90
2021/12/17 18:10:10;;;;;;;12.87;9.87;;;7.30;94.80;;;;;;4995681;28;20678;-90
2021/12/17 18:12:36;;;;;;;14.10;11.23;;;7.20;94.80;;;;;;4996671;28;20170;-90
2021/12/17 18:15:02;;;;;;;13.03;11.73;;;7.20;94.80;;;;;;4995428;28;20269;-90
2021/12/17 18:17:27;;;;;;;14.03;12.13;;;7.20;94.80;;;;;;4996691;28;20210;-90
2021/12/17 18:19:53;;;;;;;8.97;8.07;;;7.30;94.80;;;;;;4996811;28;20181;-90
2021/12/17 18:22:19;;;;;;;10.17;9.17;;;7.30;94.70;;;;;;4995225;28;20608;-90
2021/12/17 18:24:45;;;;;;;11.73;10.53;;;7.30;94.70;;;;;;4995300;28;20178;-90
2021/12/17 18:27:12;;;;;;;10.27;9.37;;;7.20;94.70;;;;;;4995308;28;20175;-90
2021/12/17 18:29:37;;;;;;;9.57;8.67;;;7.20;94.70;;;;;;4996333;28;20214;-90
2021/12/17 18:32:04;;;;;;;11.73;8.83;;;7.10;94.50;;;;;;4995078;28;20678;-90
2021/12/17 18:34:30;;;;;;;9.60;8.70;;;7.10;94.50;;;;;;4995222;28;20677;-90
2021/12/17 18:36:57;;;;;;;9.73;8.73;;;7.10;94.50;;;;;;4996561;28;20174;-91
2021/12/17 18:39:22;;;;;;;10.50;9.40;;;7.10;94.60;;;;;;4995250;28;20182;-91
2021/12/17 18:42:05;;;;;;;9.93;8.93;;;7.10;94.50;;;;;;4995087;28;20194;-91
2021/12/17 18:44:31;;;;;;;11.43;9.00;;;7.10;94.50;;;;;;4996181;28;20155;-90
2021/12/17 18:46:56;;;;;;;10.07;9.07;;;7.10;94.50;;;;;;4994995;28;20564;-90
2021/12/17 18:49:24;;;;;;;10.03;9.03;;;7.10;94.60;;;;;;4994897;28;20662;-90
2021/12/17 18:51:50;;;;;;;10.17;9.17;;;7.20;94.50;;;;;;4994731;28;20214;-90
2021/12/17 18:54:16;;;;;;;8.93;8.03;;;7.20;94.50;;;;;;4994832;28;20181;-90
2021/12/17 18:56:43;;;;;;;10.30;9.30;;;7.10;94.50;;;;;;4994496;28;20178;-90
2021/12/17 18:59:10;;;;;;;10.10;8.90;;;7.20;94.50;;;;;;4994197;28;20529;-91
2021/12/17 19:01:37;;;;;;;9.50;8.60;;;7.10;94.50;;;;;;4994457;28;20217;-90
2021/12/17 19:04:03;;;;;;;9.80;8.80;;;7.20;94.50;;;;;;4994775;28;20178;-91
2021/12/17 19:06:29;;;;;;;10.53;9.27;;;7.20;94.40;;;;;;4994513;28;20662;-90
2021/12/17 19:08:55;;;;;;;10.17;8.90;;;7.20;94.40;;;;;;4994436;28;20174;-91
2021/12/17 19:11:21;;;;;;;9.50;8.50;;;7.20;94.40;;;;;;4995544;28;20228;-90
2021/12/17 19:13:47;;;;;;;11.53;10.37;;;7.20;94.40;;;;;;4995449;28;20420;-90
2021/12/17 19:16:14;;;;;;;11.50;9.93;;;7.30;94.40;;;;;;4994342;28;20174;-90
2021/12/17 19:21:29;;;;;;;8.93;8.03;;;7.30;94.40;;;;;;4995842;28;20198;-90
2021/12/17 19:24:00;;;;;;;9.40;7.63;;;7.30;94.30;;;;;;4994279;28;20181;-90
2021/12/17 19:26:27;;;;;;;10.07;7.93;;;7.30;94.30;;;;;;4995647;28;20158;-90
2021/12/17 19:28:53;;;;;;;11.10;8.60;;;7.30;94.30;;;;;;4995371;28;20188;-90
2021/12/17 19:31:19;;;;;;;8.80;7.90;;;7.30;94.30;;;;;;4995107;28;20206;-90
2021/12/17 19:33:44;;;;;;;10.80;9.27;;;7.30;94.40;;;;;;4994009;28;20184;-89
2021/12/17 19:36:10;;;;;;;9.73;8.73;;;7.30;94.30;;;;;;4993974;28;20221;-90
2021/12/17 19:38:37;;;;;;;8.50;7.70;;;7.30;94.30;;;;;;4995487;28;20166;-91
2021/12/17 19:41:04;;;;;;;9.50;8.53;;;7.30;94.30;;;;;;4993760;28;20202;-90
2021/12/17 19:43:30;;;;;;;10.63;9.17;;;7.30;94.30;;;;;;4993954;28;20615;-90
2021/12/17 19:46:00;;;;;;;10.70;9.60;;;7.30;94.10;;;;;;4993846;28;20757;-89
2021/12/17 19:48:33;;;;;;;10.67;9.13;;;7.30;94.10;;;;;;4993736;28;20562;-90
2021/12/17 19:50:59;;;;;;;10.87;9.43;;;7.30;94.20;;;;;;4993554;28;20216;-90
2021/12/17 19:53:25;;;;;;;10.77;9.20;;;7.30;94.10;;;;;;4993605;28;20174;-91
2021/12/17 19:55:51;;;;;;;10.60;9.47;;;7.30;94.10;;;;;;4993610;28;20174;-90
2021/12/17 19:58:17;;;;;;;12.37;9.23;;;7.30;94.10;;;;;;4993552;28;20178;-90
2021/12/17 20:00:44;;;;;;;14.40;11.03;;;7.30;94.10;;;;;;4993623;28;20217;-90
2021/12/17 20:03:10;;;;;;;17.07;11.90;;;7.20;94.10;;;;;;4993688;28;20225;-90
2021/12/17 20:05:36;;;;;;;16.70;13.07;;;7.30;94.20;;;;;;4993846;28;20174;-90
2021/12/17 20:08:08;;;;;;;18.20;13.40;;;7.30;94.20;;;;;;4993352;28;20526;-90
2021/12/17 20:10:35;;;;;;;19.17;14.43;;;7.20;94.20;;;;;;4993478;28;20212;-90
2021/12/17 20:13:01;;;;;;;18.37;13.53;;;7.30;94.20;;;;;;4993236;28;20205;-90
2021/12/17 20:15:27;;;;;;;16.60;13.30;;;7.30;94.20;;;;;;4994458;28;20186;-90
2021/12/17 20:17:53;;;;;;;21.17;14.30;;;7.30;94.20;;;;;;4993586;28;20189;-90
2021/12/17 20:20:19;;;;;;;20.30;15.00;;;7.30;94.20;;;;;;4994275;28;20281;-90
2021/12/17 20:22:45;;;;;;;20.10;15.00;;;7.30;94.30;;;;;;4993511;28;20265;-90
2021/12/17 20:25:12;;;;;;;23.20;16.53;;;7.30;94.30;;;;;;4993142;28;20623;-90
2021/12/17 20:27:38;;;;;;;21.87;15.63;;;7.30;94.30;;;;;;4994263;28;20178;-91
2021/12/17 20:30:11;;;;;;;21.47;16.63;;;7.30;94.40;;;;;;4992887;28;20201;-89
2021/12/17 20:32:38;;;;;;;23.90;16.60;;;7.30;94.20;;;;;;4994559;28;20182;-90
2021/12/17 20:35:05;;;;;;;26.53;17.03;;;7.30;94.20;;;;;;4994134;28;20170;-90
2021/12/17 20:37:31;;;;;;;24.23;17.47;;;7.30;94.20;;;;;;4992962;28;20178;-90
2021/12/17 20:39:57;;;;;;;27.57;17.80;;;7.30;94.20;;;;;;4992928;28;20839;-91
2021/12/17 20:43:15;;;;;;;26.73;18.37;;;7.30;94.20;;;;;;4992901;28;20182;-90
2021/12/17 20:45:14;;;;;;;25.97;17.47;;;7.20;94.30;;;;;;4990112;28;20181;-89
2021/12/17 20:47:40;;;;;;;29.20;18.87;;;7.20;94.30;;;;;;4992878;28;20173;-90
2021/12/17 20:50:10;;;;;;;24.70;17.37;;;7.20;94.30;;;;;;4993904;28;20209;-90
2021/12/17 20:52:36;;;;;;;24.03;16.97;;;7.20;94.40;;;;;;4992854;28;20258;-90
2021/12/17 20:55:08;;;;;;;23.93;18.00;;;7.30;94.40;;;;;;4992759;28;20228;-90
2021/12/17 20:57:34;;;;;;;21.13;16.30;;;7.30;94.40;;;;;;4992830;28;20630;-90
2021/12/17 21:00:00;;;;;;;19.90;15.70;;;7.30;94.40;;;;;;4992657;28;20178;-90
2021/12/17 21:02:26;;;;;;;18.67;15.33;;;7.30;94.40;;;;;;4992526;28;20198;-90
2021/12/17 21:04:51;;;;;;;19.17;15.53;;;7.30;94.40;;;;;;4992838;28;20180;-90
2021/12/17 21:07:17;;;;;;;20.37;16.67;;;7.30;94.40;;;;;;4992716;28;20572;-90
2021/12/17 21:09:44;;;;;;;20.80;16.37;;;7.30;94.50;;;;;;4992669;28;20181;-90
2021/12/17 21:12:09;;;;;;;21.70;16.83;;;7.30;94.40;;;;;;4992626;28;20198;-90
2021/12/17 21:14:35;;;;;;;22.67;16.73;;;7.20;94.40;;;;;;4992618;28;20223;-89
2021/12/17 21:17:01;;;;;;;21.23;16.23;;;7.20;94.40;;;;;;4992618;28;20205;-89
2021/12/17 21:19:29;;;;;;;24.30;18.33;;;7.30;94.50;;;;;;4992651;28;20178;-91
2021/12/17 21:21:58;;;;;;;26.97;19.10;;;7.20;94.50;;;;;;4995587;28;20201;-90
2021/12/17 21:24:25;;;;;;;28.73;19.03;;;7.20;94.50;;;;;;4996855;28;20181;-90
2021/12/17 21:26:52;;;;;;;25.93;18.90;;;7.30;94.50;;;;;;4996368;28;20546;-89
2021/12/17 21:29:19;;;;;;;31.00;21.63;;;7.30;94.50;;;;;;4997797;28;20178;-90
2021/12/17 21:31:48;;;;;;;30.57;21.07;;;7.30;94.50;;;;;;4996139;28;20205;-89
2021/12/17 21:34:14;;;;;;;28.93;22.07;;;7.30;94.60;;;;;;4996284;28;20178;-90
2021/12/17 21:36:40;;;;;;;34.80;23.23;;;7.30;94.50;;;;;;4997372;28;20705;-90
2021/12/17 21:39:06;;;;;;;30.40;22.67;;;7.30;94.50;;;;;;4997386;28;20233;-90
2021/12/17 21:41:32;;;;;;;29.30;21.97;;;7.30;94.50;;;;;;4995966;28;20193;-90
2021/12/17 21:43:58;;;;;;;28.13;21.70;;;7.30;94.50;;;;;;4996041;28;20182;-90
2021/12/17 21:46:24;;;;;;;28.13;20.90;;;7.30;94.50;;;;;;4996192;28;20672;-90
2021/12/17 21:48:50;;;;;;;29.80;21.23;;;7.30;94.50;;;;;;4996520;28;20181;-90
2021/12/17 21:51:17;;;;;;;25.67;19.23;;;7.30;94.50;;;;;;4995824;28;20214;-90
2021/12/17 21:53:47;;;;;;;19.10;16.33;;;7.30;94.50;;;;;;4995890;28;20178;-90
2021/12/17 21:56:14;;;;;;;15.93;14.23;;;7.30;94.50;;;;;;4996081;28;20513;-89
2021/12/17 21:58:40;;;;;;;15.70;14.00;;;7.30;94.50;;;;;;4995905;28;20174;-90
2021/12/17 22:01:07;;;;;;;14.33;12.83;;;7.30;94.50;;;;;;4995814;28;20220;-90
2021/12/17 22:03:35;;;;;;;12.97;11.67;;;7.30;94.50;;;;;;4995719;28;20175;-89
2021/12/17 22:06:02;;;;;;;23.93;14.83;;;7.30;94.40;;;;;;5072135;23;20216;-94
2021/12/17 22:08:29;;;;;;;15.30;12.90;;;7.20;94.40;;;;;;5041346;28;20178;-91
2021/12/17 22:10:56;;;;;;;18.80;14.83;;;7.30;94.60;;;;;;5041038;28;20240;-92
2021/12/17 22:13:22;;;;;;;26.80;19.23;;;7.20;94.50;;;;;;5041493;28;20173;-91
2021/12/17 22:15:49;;;;;;;31.40;21.37;;;7.20;94.50;;;;;;5040820;28;20209;-91
2021/12/17 22:18:19;;;;;;;30.67;20.70;;;7.20;94.50;;;;;;5040349;28;20166;-88
2021/12/17 22:20:53;;;;;;;32.67;20.33;;;7.10;94.50;;;;;;5041269;28;20221;-92
2021/12/17 22:23:19;;;;;;;30.37;20.77;;;7.20;94.60;;;;;;5041265;28;20150;-91
2021/12/17 22:25:45;;;;;;;30.33;20.47;;;7.20;94.60;;;;;;5041015;28;20224;-90
2021/12/17 22:28:12;;;;;;;27.83;19.73;;;7.00;94.70;;;;;;5041078;28;20217;-91
2021/12/17 22:30:38;;;;;;;26.63;17.30;;;7.10;94.80;;;;;;5041032;28;20185;-92
2021/12/17 22:33:04;;;;;;;23.07;16.67;;;7.10;94.80;;;;;;5039623;28;20170;-93
2021/12/17 22:35:31;;;;;;;13.87;11.53;;;7.10;94.90;;;;;;5040871;28;20209;-93
2021/12/17 22:38:01;;;;;;;7.87;7.07;;;7.10;94.90;;;;;;5040698;28;20157;-92
2021/12/17 22:40:35;;;;;;;6.13;5.53;;;7.20;94.90;;;;;;5040918;28;20182;-91
2021/12/17 22:43:11;;;;;;;5.50;5.00;;;7.10;94.90;;;;;;5040813;28;20157;-90
2021/12/17 22:45:38;;;;;;;5.27;4.67;;;7.10;94.90;;;;;;5040781;28;20181;-92
2021/12/17 22:48:05;;;;;;;5.00;4.50;;;7.20;94.90;;;;;;5040757;28;20157;-90
2021/12/17 22:50:31;;;;;;;4.83;4.43;;;7.20;94.90;;;;;;5040616;28;20205;-90
2021/12/17 22:52:57;;;;;;;8.63;6.33;;;7.20;94.80;;;;;;5040394;28;20176;-91
2021/12/17 22:55:23;;;;;;;23.93;12.93;;;7.00;94.80;;;;;;5040311;28;20193;-91
2021/12/17 22:57:49;;;;;;;25.33;16.23;;;7.00;94.80;;;;;;5040516;28;20249;-92
2021/12/17 23:00:47;;;;;;;26.20;17.33;;;7.00;94.80;;;;;;5040572;28;20162;-92
2021/12/17 23:03:18;;;;;;;49.93;24.67;;;7.10;94.90;;;;;;5006708;28;20239;-92
2021/12/17 23:05:44;;;;;;;51.90;26.90;;;7.00;94.90;;;;;;5040195;28;20196;-91
2021/12/17 23:08:12;;;;;;;59.70;26.23;;;7.00;95.00;;;;;;5040345;28;20197;-92
2021/12/17 23:10:39;;;;;;;56.07;25.13;;;7.00;95.00;;;;;;5040191;28;20205;-89
2021/12/17 23:13:06;;;;;;;58.83;24.73;;;7.00;95.10;;;;;;5040015;28;20230;-90
2021/12/17 23:15:32;;;;;;;58.50;24.77;;;7.00;95.10;;;;;;5038466;28;20181;-91
2021/12/17 23:17:57;;;;;;;49.37;22.60;;;6.90;95.20;;;;;;5035975;28;20207;-91
2021/12/17 23:20:23;;;;;;;54.27;23.17;;;7.00;95.20;;;;;;5039879;28;20229;-90
2021/12/17 23:22:49;;;;;;;49.57;23.77;;;6.90;95.30;;;;;;5039921;28;20283;-93
2021/12/17 23:25:16;;;;;;;48.87;23.30;;;6.90;95.30;;;;;;5039811;28;20208;-92
2021/12/17 23:27:43;;;;;;;47.83;23.30;;;7.00;95.30;;;;;;5040477;28;20192;-91
2021/12/17 23:30:09;;;;;;;44.23;21.80;;;7.00;95.30;;;;;;5039877;28;20197;-91
2021/12/17 23:32:38;;;;;;;51.97;25.40;;;7.00;95.30;;;;;;5039540;28;20196;-92
2021/12/17 23:35:15;;;;;;;51.20;26.80;;;7.00;95.30;;;;;;5039452;28;20201;-92
2021/12/17 23:37:41;;;;;;;43.70;23.17;;;6.90;95.30;;;;;;5038649;28;20164;-92
2021/12/17 23:40:07;;;;;;;46.87;22.03;;;6.90;95.40;;;;;;5039787;28;20188;-92
2021/12/17 23:42:33;;;;;;;49.73;22.17;;;6.90;95.40;;;;;;5039298;28;20153;-92
2021/12/17 23:44:59;;;;;;;48.40;21.47;;;6.90;95.50;;;;;;5039228;28;20201;-93
2021/12/17 23:47:24;;;;;;;39.33;19.50;;;6.90;95.50;;;;;;5039561;28;20217;-92
2021/12/17 23:49:50;;;;;;;40.80;18.87;;;6.90;95.50;;;;;;5038193;28;20240;-93
2021/12/17 23:52:16;;;;;;;41.53;18.60;;;6.90;95.50;;;;;;5031756;28;20161;-92
2021/12/17 23:54:42;;;;;;;38.70;18.83;;;6.90;95.50;;;;;;5028949;28;20178;-93
2021/12/17 23:57:10;;;;;;;35.57;17.63;;;6.80;95.60;;;;;;5032640;28;20170;-92
2021/12/17 23:59:36;;;;;;;27.43;11.87;;;6.80;95.60;;;;;;5030270;28;20185;-92
